Time;durP1;ratioP1;P1;durP2;ratioP2;P2;SDS_P1;SDS_P2;PMS_P1;PMS_P2;Temp;Humidity;BMP_temperature;BMP_pressure;BME280_temperature;BME280_humidity;BME280_pressure;Samples;Min_cycle;Max_cycle;Signal;HPM_P1;HPM_P2
2022/03/04 09:29:28;;;;;;;14.10;8.03;;;2.50;1.00;;;;;;4904054;29;20214;-52
2022/03/04 09:31:54;;;;;;;15.73;7.63;;;2.50;99.90;;;;;;4897892;29;20482;-52
2022/03/04 09:34:19;;;;;;;16.93;8.70;;;2.50;99.90;;;;;;4914122;29;20452;-65
2022/03/04 09:36:45;;;;;;;14.57;8.07;;;2.60;99.90;;;;;;4913478;29;20226;-52
2022/03/04 09:39:11;;;;;;;16.37;7.63;;;2.50;99.90;;;;;;4915595;29;20206;-53
2022/03/04 09:41:40;;;;;;;16.70;8.50;;;2.50;99.90;;;;;;4916659;29;20649;-53
2022/03/04 09:44:06;;;;;;;15.30;8.63;;;2.50;99.90;;;;;;4915234;29;21070;-53
2022/03/04 09:46:31;;;;;;;17.80;7.77;;;2.30;99.90;;;;;;4915630;29;20530;-53
2022/03/04 09:48:57;;;;;;;19.30;8.90;;;2.30;99.90;;;;;;4916945;29;20194;-53
2022/03/04 09:51:23;;;;;;;15.83;8.57;;;2.40;99.90;;;;;;4915354;29;20242;-52
2022/03/04 09:53:52;;;;;;;16.43;8.30;;;2.40;99.90;;;;;;4915631;29;20610;-53
2022/03/04 09:56:19;;;;;;;19.07;8.63;;;2.50;1.00;;;;;;4915320;29;20952;-52
2022/03/04 09:58:44;;;;;;;15.60;7.50;;;2.50;99.90;;;;;;4915693;29;20435;-52
2022/03/04 10:01:11;;;;;;;13.83;7.20;;;2.70;99.90;;;;;;4914978;29;20517;-52
2022/03/04 10:03:47;;;;;;;12.67;7.03;;;2.80;99.90;;;;;;4915698;29;20175;-52
2022/03/04 10:06:13;;;;;;;13.23;7.27;;;2.80;99.90;;;;;;4915700;29;20434;-52
2022/03/04 10:08:47;;;;;;;21.20;8.37;;;2.90;99.90;;;;;;4915721;29;20494;-58
2022/03/04 10:11:23;;;;;;;14.43;7.33;;;2.90;99.90;;;;;;4915200;29;20486;-53
2022/03/04 10:13:50;;;;;;;16.43;9.07;;;3.00;99.90;;;;;;4913651;29;20435;-53
2022/03/04 10:16:24;;;;;;;24.07;11.87;;;3.20;99.90;;;;;;4914849;29;20475;-58
2022/03/04 10:19:16;;;;;;;22.37;10.80;;;3.30;97.50;;;;;;4915877;29;20536;-52
2022/03/04 10:21:55;;;;;;;18.30;10.90;;;3.50;1.00;;;;;;4899075;29;20452;-53
2022/03/04 10:24:41;;;;;;;19.43;10.23;;;3.50;1.00;;;;;;4915720;29;20439;-53
2022/03/04 10:27:07;;;;;;;19.43;9.40;;;3.70;1.00;;;;;;4914880;29;20446;-53
2022/03/04 10:29:36;;;;;;;15.80;8.87;;;3.60;1.00;;;;;;4915896;29;20426;-53
2022/03/04 10:32:19;;;;;;;16.57;8.70;;;3.60;1.00;;;;;;4930433;29;20435;-52
2022/03/04 10:34:44;;;;;;;17.97;8.63;;;3.60;1.00;;;;;;4913379;29;20855;-53
2022/03/04 10:37:10;;;;;;;15.80;8.30;;;3.90;1.00;;;;;;4931390;29;20470;-53
2022/03/04 10:39:36;;;;;;;15.20;8.50;;;3.90;1.00;;;;;;4934284;29;20660;-52
2022/03/04 10:42:02;;;;;;;12.37;7.63;;;4.00;1.00;;;;;;4934475;29;20407;-58
2022/03/04 10:44:29;;;;;;;13.90;8.77;;;4.30;1.00;;;;;;4920783;29;20211;-53
2022/03/04 10:46:58;;;;;;;17.80;8.50;;;4.60;1.00;;;;;;4896668;29;20637;-53
2022/03/04 10:49:25;;;;;;;12.03;7.47;;;5.00;1.00;;;;;;4913890;29;20438;-53
2022/03/04 10:51:51;;;;;;;10.40;6.40;;;5.00;1.00;;;;;;4913278;29;20494;-53
2022/03/04 10:54:18;;;;;;;11.47;6.73;;;5.20;1.00;;;;;;4918857;29;21235;-52
2022/03/04 10:56:55;;;;;;;13.70;7.70;;;5.50;1.00;;;;;;4924651;29;20750;-54
2022/03/04 10:59:21;;;;;;;14.57;7.20;;;5.80;99.90;;;;;;4915135;29;20198;-53
2022/03/04 11:01:48;;;;;;;12.03;7.53;;;6.30;99.90;;;;;;4914800;29;20442;-53
2022/03/04 11:04:16;;;;;;;10.30;6.00;;;6.80;99.90;;;;;;4914590;29;20554;-53
2022/03/04 11:06:45;;;;;;;14.63;7.20;;;7.20;99.90;;;;;;4915079;29;20423;-53
2022/03/04 11:09:15;;;;;;;16.20;7.20;;;7.10;99.90;;;;;;4912456;29;20571;-53
2022/03/04 11:11:43;;;;;;;14.90;8.70;;;7.50;99.90;;;;;;4896155;29;20404;-52
2022/03/04 11:14:11;;;;;;;16.90;7.70;;;8.30;99.90;;;;;;4910691;29;20847;-53
2022/03/04 11:16:37;;;;;;;15.05;9.48;;;8.90;99.90;;;;;;4903338;29;20533;-53
2022/03/04 11:19:02;;;;;;;11.90;7.60;;;9.10;99.90;;;;;;4914794;29;20250;-53
2022/03/04 11:21:28;;;;;;;12.30;7.97;;;10.10;99.90;;;;;;4914685;29;20431;-53
2022/03/04 11:23:54;;;;;;;16.57;9.07;;;11.00;99.90;;;;;;4914568;29;20269;-53
2022/03/04 11:26:21;;;;;;;14.07;7.40;;;10.90;99.90;;;;;;4914112;29;20479;-53
2022/03/04 11:28:53;;;;;;;14.07;7.90;;;11.30;99.90;;;;;;4913833;29;20222;-53
2022/03/04 11:31:22;;;;;;;12.00;8.00;;;11.20;99.90;;;;;;4913541;29;20478;-53
2022/03/04 11:33:54;;;;;;;19.80;10.37;;;10.20;99.90;;;;;;4898159;29;20443;-53
2022/03/04 11:36:25;;;;;;;16.80;10.40;;;10.20;99.90;;;;;;4913508;29;20471;-65
2022/03/04 11:38:51;;;;;;;16.27;10.03;;;10.80;99.90;;;;;;4912660;29;20438;-66
2022/03/04 11:41:23;;;;;;;15.63;10.20;;;11.90;99.90;;;;;;4914251;29;20470;-66
2022/03/04 11:43:53;;;;;;;17.25;11.00;;;12.20;99.90;;;;;;4912779;29;20431;-53
2022/03/04 11:46:20;;;;;;;18.00;11.37;;;12.90;99.90;;;;;;4910574;29;20177;-52
2022/03/04 11:48:46;;;;;;;14.57;9.37;;;13.80;99.90;;;;;;4913471;29;20442;-57
2022/03/04 11:51:20;;;;;;;15.50;9.80;;;13.90;99.90;;;;;;4913905;29;20479;-53
2022/03/04 11:54:24;;;;;;;17.70;10.80;;;12.80;99.90;;;;;;4913601;29;20447;-52
2022/03/04 11:56:51;;;;;;;20.03;13.20;;;12.50;99.90;;;;;;4914543;29;21095;-52
2022/03/04 11:59:21;;;;;;;14.57;10.10;;;12.60;99.90;;;;;;4918057;29;20455;-53
2022/03/04 12:01:48;;;;;;;21.63;10.60;;;12.80;99.90;;;;;;4901180;29;20450;-53
2022/03/04 12:04:18;;;;;;;16.60;10.65;;;13.00;99.90;;;;;;4915571;29;20800;-53
2022/03/04 12:07:08;;;;;;;20.20;12.10;;;13.50;99.90;;;;;;4899371;29;20243;-54
2022/03/04 12:09:34;;;;;;;15.50;10.13;;;14.30;99.90;;;;;;4908805;29;20442;-53
2022/03/04 12:12:11;;;;;;;17.80;10.33;;;15.00;99.90;;;;;;4918230;29;20776;-53
2022/03/04 12:14:51;;;;;;;12.40;9.27;;;15.50;99.90;;;;;;4918186;29;20174;-53
2022/03/04 12:17:18;;;;;;;12.90;8.40;;;15.40;99.90;;;;;;4916033;29;20435;-52
2022/03/04 12:19:44;;;;;;;12.97;8.97;;;15.30;99.90;;;;;;4914754;29;20431;-56
2022/03/04 12:22:14;;;;;;;14.03;8.30;;;15.40;99.90;;;;;;4917719;29;20425;-52
2022/03/04 12:24:52;;;;;;;12.30;8.13;;;15.80;99.90;;;;;;4917468;29;20183;-52
2022/03/04 12:27:38;;;;;;;14.70;8.47;;;14.90;99.90;;;;;;4917046;29;20492;-52
2022/03/04 12:30:33;;;;;;;15.00;8.00;;;15.10;99.90;;;;;;4917107;29;20485;-52
2022/03/04 12:32:59;;;;;;;9.00;6.55;;;15.40;99.90;;;;;;4896195;29;20477;-52
2022/03/04 12:35:25;;;;;;;10.33;6.13;;;15.50;99.90;;;;;;4915972;29;20213;-52
2022/03/04 12:37:50;;;;;;;9.63;6.30;;;15.40;99.90;;;;;;4916650;29;20696;-59
2022/03/04 12:40:17;;;;;;;9.33;6.37;;;15.80;99.90;;;;;;4915774;29;20254;-53
2022/03/04 12:42:52;;;;;;;13.57;6.97;;;15.90;99.90;;;;;;4916282;29;20676;-57
2022/03/04 12:45:17;;;;;;;10.43;6.53;;;15.60;99.90;;;;;;4915990;29;20426;-53
2022/03/04 12:47:43;;;;;;;9.80;6.30;;;15.00;99.90;;;;;;4916795;29;20510;-55
2022/03/04 12:50:09;;;;;;;14.00;5.90;;;14.60;99.90;;;;;;4916693;29;20206;-53
2022/03/04 12:52:34;;;;;;;9.93;5.47;;;15.10;99.90;;;;;;4917041;29;20213;-52
2022/03/04 12:55:08;;;;;;;9.93;6.30;;;15.50;99.90;;;;;;4916513;29;20447;-56
2022/03/04 12:57:34;;;;;;;7.07;4.93;;;15.30;99.90;;;;;;4915889;29;20619;-52
2022/03/04 13:00:00;;;;;;;9.30;4.90;;;15.10;99.90;;;;;;4915681;29;20506;-52
2022/03/04 13:02:36;;;;;;;7.50;4.77;;;15.00;99.90;;;;;;4916699;29;20447;-52
2022/03/04 13:05:04;;;;;;;7.00;4.80;;;14.50;99.90;;;;;;4916104;29;20519;-53
2022/03/04 13:07:30;;;;;;;8.30;4.90;;;14.60;99.90;;;;;;4915077;29;20449;-53
2022/03/04 13:09:57;;;;;;;4.97;3.83;;;15.10;99.90;;;;;;4915907;29;20431;-53
2022/03/04 13:12:24;;;;;;;6.73;3.63;;;15.50;99.90;;;;;;4914112;29;20233;-53
2022/03/04 13:14:51;;;;;;;7.70;4.40;;;15.90;99.90;;;;;;4881934;29;20972;-53
2022/03/04 13:17:18;;;;;;;12.13;4.17;;;16.30;99.90;;;;;;4912932;29;20478;-55
2022/03/04 13:19:46;;;;;;;4.60;3.60;;;16.40;99.90;;;;;;4914777;29;20445;-53
2022/03/04 13:22:15;;;;;;;6.73;3.47;;;16.10;99.90;;;;;;4898815;29;20443;-53
2022/03/04 13:24:43;;;;;;;5.63;3.67;;;16.10;99.90;;;;;;4897461;29;20482;-53
2022/03/04 13:27:16;;;;;;;5.83;3.73;;;15.70;99.90;;;;;;4914528;29;20426;-53
2022/03/04 13:29:46;;;;;;;10.40;3.60;;;14.80;99.90;;;;;;4915201;29;20458;-52
2022/03/04 13:32:17;;;;;;;6.07;3.00;;;13.70;99.90;;;;;;4915517;29;20443;-52
2022/03/04 13:34:48;;;;;;;5.60;3.30;;;12.60;99.90;;;;;;4910931;29;20534;-53
2022/03/04 13:37:19;;;;;;;8.50;4.50;;;11.50;99.90;;;;;;4915202;29;20463;-52
2022/03/04 13:39:56;;;;;;;6.83;3.20;;;10.60;99.90;;;;;;4912992;29;20491;-54
2022/03/04 13:42:26;;;;;;;4.33;3.17;;;9.70;99.90;;;;;;4914477;29;20438;-53
2022/03/04 13:45:05;;;;;;;12.10;4.00;;;9.10;99.90;;;;;;4914968;29;20439;-53
2022/03/04 13:47:57;;;;;;;6.03;3.30;;;8.50;99.90;;;;;;4914963;29;20427;-59
2022/03/04 13:50:22;;;;;;;5.83;3.37;;;8.30;99.90;;;;;;4911262;29;20798;-53
2022/03/04 13:53:03;;;;;;;4.50;3.30;;;8.10;99.90;;;;;;4914448;29;20438;-53
2022/03/04 13:55:59;;;;;;;7.40;3.57;;;8.80;99.90;;;;;;4915123;29;20300;-52
2022/03/04 13:58:30;;;;;;;5.90;3.00;;;9.10;99.90;;;;;;4914368;29;20832;-55
2022/03/04 14:00:57;;;;;;;4.87;3.30;;;8.80;99.90;;;;;;4897755;29;20475;-53
2022/03/04 14:03:26;;;;;;;6.40;3.80;;;9.00;99.90;;;;;;4911537;29;20789;-53
2022/03/04 14:06:10;;;;;;;5.03;3.30;;;10.20;99.90;;;;;;4914273;29;20531;-52
2022/03/04 14:08:37;;;;;;;5.47;2.87;;;11.60;99.90;;;;;;4914491;29;20482;-53
2022/03/04 14:11:06;;;;;;;4.67;3.03;;;12.40;99.90;;;;;;4914497;29;20486;-53
2022/03/04 14:13:32;;;;;;;6.90;2.93;;;12.90;99.90;;;;;;4910419;29;20929;-53
2022/03/04 14:15:59;;;;;;;5.50;3.40;;;12.40;99.90;;;;;;4897719;29;20478;-53
2022/03/04 14:18:29;;;;;;;4.47;2.47;;;11.30;99.90;;;;;;4914917;29;20423;-52
2022/03/04 14:20:57;;;;;;;5.10;3.13;;;10.50;99.90;;;;;;4910106;29;20435;-53
2022/03/04 14:23:23;;;;;;;6.90;3.00;;;9.70;99.90;;;;;;4914122;29;20431;-53
2022/03/04 14:25:49;;;;;;;6.03;3.30;;;9.20;99.90;;;;;;4914384;29;20798;-52
2022/03/04 14:28:16;;;;;;;5.00;2.70;;;8.60;99.90;;;;;;4913949;29;20438;-52
2022/03/04 14:30:45;;;;;;;4.60;3.17;;;8.30;99.90;;;;;;4914707;29;20570;-52
2022/03/04 14:33:11;;;;;;;5.30;3.20;;;7.90;99.90;;;;;;4898175;29;20470;-52
2022/03/04 14:35:39;;;;;;;6.90;3.40;;;7.80;99.90;;;;;;4915216;29;20546;-53
2022/03/04 14:38:06;;;;;;;7.93;3.30;;;7.80;99.90;;;;;;4915551;29;20418;-53
2022/03/04 14:40:32;;;;;;;4.30;2.80;;;7.80;99.90;;;;;;4914897;29;20806;-52
2022/03/04 14:43:00;;;;;;;5.70;2.60;;;7.70;99.90;;;;;;4915279;29;20752;-51
2022/03/04 14:45:26;;;;;;;3.53;2.73;;;7.60;99.90;;;;;;4914478;29;20951;-52
2022/03/04 14:47:54;;;;;;;6.10;3.17;;;7.50;99.90;;;;;;4913871;29;20812;-55
2022/03/04 14:50:21;;;;;;;6.57;3.30;;;7.40;99.90;;;;;;4914575;29;20921;-53
2022/03/04 14:52:49;;;;;;;7.23;3.80;;;7.30;99.90;;;;;;4915059;29;20463;-52
2022/03/04 14:55:15;;;;;;;8.77;2.83;;;7.20;99.90;;;;;;4915254;29;22527;-53
2022/03/04 14:57:41;;;;;;;3.00;1.90;;;7.20;99.90;;;;;;4915383;29;20427;-52
2022/03/04 15:00:10;;;;;;;7.70;2.50;;;7.30;99.90;;;;;;4914418;29;20176;-51
2022/03/04 15:02:37;;;;;;;4.00;2.33;;;7.40;99.90;;;;;;4915056;29;20446;-53
2022/03/04 15:05:03;;;;;;;2.77;2.47;;;7.40;99.90;;;;;;4915253;29;20419;-53
2022/03/04 15:07:29;;;;;;;3.07;2.10;;;7.40;99.90;;;;;;4913972;29;20439;-52
2022/03/04 15:09:54;;;;;;;2.70;2.30;;;7.30;99.90;;;;;;4914501;29;20431;-51
2022/03/04 15:12:20;;;;;;;5.90;2.10;;;7.20;99.90;;;;;;4914352;29;20195;-52
2022/03/04 15:14:45;;;;;;;5.63;2.73;;;7.20;99.90;;;;;;4914408;29;20278;-51
2022/03/04 15:17:12;;;;;;;4.10;2.10;;;7.10;99.90;;;;;;4914470;29;20301;-52
2022/03/04 15:19:41;;;;;;;4.00;2.30;;;7.00;99.90;;;;;;4913247;29;20183;-53
2022/03/04 15:22:12;;;;;;;3.83;2.10;;;7.10;99.90;;;;;;4913263;29;20451;-52
2022/03/04 15:24:39;;;;;;;3.10;1.70;;;7.00;99.90;;;;;;4912479;29;20482;-55
2022/03/04 15:27:07;;;;;;;5.10;1.40;;;6.80;99.90;;;;;;4911977;29;20449;-52
2022/03/04 15:29:33;;;;;;;3.33;1.40;;;6.80;99.90;;;;;;4913432;29;20887;-52
2022/03/04 15:32:04;;;;;;;2.53;1.20;;;6.80;99.90;;;;;;4912803;29;20441;-52
2022/03/04 15:34:31;;;;;;;3.83;1.60;;;6.70;99.90;;;;;;4911989;29;20484;-52
2022/03/04 15:36:57;;;;;;;3.57;1.60;;;6.70;99.90;;;;;;4912981;29;20473;-52
2022/03/04 15:39:22;;;;;;;5.93;1.87;;;6.50;99.90;;;;;;4913492;29;20431;-51
2022/03/04 15:41:48;;;;;;;4.70;1.87;;;6.50;99.90;;;;;;4914453;29;20192;-52
2022/03/04 15:44:25;;;;;;;1.83;1.50;;;6.50;99.90;;;;;;4896749;29;20191;-52
2022/03/04 15:46:51;;;;;;;6.47;1.80;;;6.50;99.90;;;;;;4913543;29;20641;-55
2022/03/04 15:49:17;;;;;;;1.70;1.47;;;6.50;99.90;;;;;;4896446;29;20494;-51
2022/03/04 15:51:43;;;;;;;2.87;1.40;;;6.50;99.90;;;;;;4914070;29;20470;-52
2022/03/04 15:54:10;;;;;;;3.37;1.40;;;6.50;99.90;;;;;;4913762;29;20191;-52
2022/03/04 15:56:37;;;;;;;3.60;1.90;;;6.40;99.90;;;;;;4913732;29;20252;-52
2022/03/04 15:59:03;;;;;;;2.10;1.37;;;6.30;99.90;;;;;;4913512;29;20439;-52
2022/03/04 16:01:31;;;;;;;1.90;1.57;;;6.30;99.90;;;;;;4913526;29;20944;-52
2022/03/04 16:03:56;;;;;;;3.60;1.57;;;6.30;99.90;;;;;;4913917;29;20191;-52
2022/03/04 16:06:22;;;;;;;3.83;1.40;;;6.20;99.90;;;;;;4913426;29;20473;-52
2022/03/04 16:08:48;;;;;;;3.23;1.73;;;6.20;99.90;;;;;;4913299;29;20671;-52
2022/03/04 16:11:13;;;;;;;2.83;1.50;;;6.20;99.90;;;;;;4913268;29;20443;-52
2022/03/04 16:13:43;;;;;;;7.37;1.67;;;6.20;99.90;;;;;;4913356;29;20857;-52
2022/03/04 16:16:12;;;;;;;5.07;1.47;;;6.20;99.90;;;;;;4913378;29;20210;-52
2022/03/04 16:18:41;;;;;;;2.90;1.47;;;6.20;99.90;;;;;;4913391;29;20431;-52
2022/03/04 16:21:08;;;;;;;2.50;1.60;;;6.00;99.90;;;;;;4912923;29;20548;-52
2022/03/04 16:23:34;;;;;;;2.70;1.70;;;5.80;99.90;;;;;;4913693;29;20428;-52
2022/03/04 16:26:00;;;;;;;2.33;1.90;;;5.80;99.90;;;;;;4912800;29;20439;-51
2022/03/04 16:28:26;;;;;;;3.13;1.60;;;5.80;99.90;;;;;;4913459;29;20423;-52
2022/03/04 16:30:53;;;;;;;7.20;1.83;;;5.70;99.90;;;;;;4913286;29;20483;-52
2022/03/04 16:33:19;;;;;;;3.50;1.90;;;5.60;99.90;;;;;;4913183;29;20214;-52
2022/03/04 16:35:46;;;;;;;3.70;1.70;;;5.60;99.90;;;;;;4896488;29;20471;-52
2022/03/04 16:38:11;;;;;;;2.53;1.73;;;5.50;99.90;;;;;;4912226;29;20442;-52
2022/03/04 16:40:38;;;;;;;1.63;1.53;;;5.50;99.90;;;;;;4913907;29;20430;-51
2022/03/04 16:43:04;;;;;;;2.83;1.73;;;5.40;99.90;;;;;;4914449;29;20183;-52
2022/03/04 16:45:30;;;;;;;2.90;1.70;;;5.30;99.90;;;;;;4916715;29;20546;-51
2022/03/04 16:47:56;;;;;;;2.93;1.70;;;5.20;99.90;;;;;;4916535;29;20445;-51
2022/03/04 16:50:22;;;;;;;2.73;1.77;;;5.20;99.90;;;;;;4915808;29;20438;-52
2022/03/04 16:52:47;;;;;;;2.97;1.57;;;5.10;99.90;;;;;;4898527;29;20513;-52
2022/03/04 16:55:13;;;;;;;1.87;1.70;;;5.00;99.90;;;;;;4916012;29;20259;-52
2022/03/04 16:57:39;;;;;;;3.07;1.80;;;4.80;99.90;;;;;;4916537;29;20868;-52
2022/03/04 17:00:06;;;;;;;2.40;1.73;;;4.80;99.90;;;;;;4915047;29;20203;-52
2022/03/04 17:02:31;;;;;;;2.83;1.80;;;4.80;99.90;;;;;;4916232;29;20198;-54
2022/03/04 17:04:57;;;;;;;2.53;2.07;;;4.70;99.90;;;;;;4916309;29;20431;-52
2022/03/04 17:07:23;;;;;;;3.40;1.77;;;4.70;99.90;;;;;;4916109;29;20178;-53
2022/03/04 17:09:48;;;;;;;4.37;1.90;;;4.60;99.90;;;;;;4916675;29;20179;-51
2022/03/04 17:12:14;;;;;;;3.30;1.77;;;4.50;99.90;;;;;;4916776;29;20191;-51
2022/03/04 17:14:42;;;;;;;4.13;2.00;;;4.50;99.90;;;;;;4917051;29;20195;-53
2022/03/04 17:17:08;;;;;;;2.00;1.60;;;4.40;99.90;;;;;;4913672;29;20506;-53
2022/03/04 17:19:34;;;;;;;7.00;1.87;;;4.40;99.90;;;;;;4909855;29;20960;-52
2022/03/04 17:22:01;;;;;;;4.50;2.33;;;4.40;99.90;;;;;;4915422;29;20179;-52
2022/03/04 17:24:26;;;;;;;6.93;1.83;;;4.30;99.90;;;;;;4916524;29;20441;-52
2022/03/04 17:26:52;;;;;;;3.67;2.00;;;4.30;99.90;;;;;;4914863;29;20944;-52
2022/03/04 17:29:18;;;;;;;2.67;2.00;;;4.20;99.90;;;;;;4916078;29;20238;-53
2022/03/04 17:31:43;;;;;;;5.17;2.00;;;4.20;99.90;;;;;;4914732;29;20239;-52
2022/03/04 17:34:09;;;;;;;5.30;2.53;;;4.10;99.90;;;;;;4915013;29;20198;-51
2022/03/04 17:36:34;;;;;;;4.53;2.70;;;4.10;99.90;;;;;;4916307;29;20211;-52
2022/03/04 17:39:00;;;;;;;5.77;2.80;;;4.10;99.90;;;;;;4916057;29;20282;-52
2022/03/04 17:41:27;;;;;;;3.30;2.30;;;4.20;99.90;;;;;;4915646;29;20199;-53
2022/03/04 17:43:53;;;;;;;3.57;2.50;;;4.10;99.90;;;;;;4915177;29;20961;-52
2022/03/04 17:46:20;;;;;;;5.83;2.70;;;4.20;99.90;;;;;;4909379;29;20467;-51
2022/03/04 17:48:48;;;;;;;5.10;2.60;;;4.30;99.90;;;;;;4906662;29;20481;-52
2022/03/04 17:51:13;;;;;;;3.00;2.23;;;4.30;99.90;;;;;;4915452;29;20427;-52
2022/03/04 17:53:39;;;;;;;6.45;2.70;;;4.20;99.90;;;;;;4916989;29;20446;-51
2022/03/04 17:56:05;;;;;;;3.77;2.53;;;4.40;99.90;;;;;;4913187;29;20740;-52
2022/03/04 17:58:30;;;;;;;6.20;2.43;;;4.40;99.90;;;;;;4915275;29;20195;-51
2022/03/04 18:00:56;;;;;;;4.50;2.50;;;4.30;99.90;;;;;;4915962;29;20180;-52
2022/03/04 18:03:21;;;;;;;4.27;2.13;;;4.30;99.90;;;;;;4915516;29;20183;-52
2022/03/04 18:05:47;;;;;;;5.13;2.70;;;4.20;99.90;;;;;;4896773;29;20514;-52
2022/03/04 18:08:13;;;;;;;6.20;2.53;;;4.20;99.90;;;;;;4896839;29;20215;-52
2022/03/04 18:10:38;;;;;;;6.43;2.97;;;4.20;99.90;;;;;;4896953;29;20227;-52
2022/03/04 18:13:04;;;;;;;4.63;2.10;;;4.10;99.90;;;;;;4897110;29;20183;-52
2022/03/04 18:15:29;;;;;;;4.03;2.20;;;4.00;1.00;;;;;;4900877;29;20211;-52
2022/03/04 18:17:56;;;;;;;6.37;2.30;;;3.90;1.00;;;;;;4915381;29;20194;-52
2022/03/04 18:20:22;;;;;;;7.47;2.60;;;3.90;1.00;;;;;;4913852;29;20175;-51
2022/03/04 18:22:48;;;;;;;2.90;2.60;;;3.90;1.00;;;;;;4914605;29;20443;-52
2022/03/04 18:25:14;;;;;;;5.87;2.33;;;3.80;1.00;;;;;;4914164;29;20203;-53
2022/03/04 18:27:40;;;;;;;6.83;2.87;;;3.70;1.00;;;;;;4913745;29;20427;-52
2022/03/04 18:30:06;;;;;;;3.77;2.23;;;3.70;1.00;;;;;;4915504;29;20230;-52
2022/03/04 18:32:31;;;;;;;5.13;2.50;;;3.60;1.00;;;;;;4915156;29;20225;-54
2022/03/04 18:34:57;;;;;;;8.57;4.30;;;3.50;1.00;;;;;;4915170;29;20202;-53
2022/03/04 18:37:22;;;;;;;6.10;2.43;;;3.30;1.00;;;;;;4914873;29;20214;-52
2022/03/04 18:42:32;;;;;;;5.00;2.70;;;3.20;1.00;;;;;;4903185;29;20186;-53
2022/03/04 18:47:42;;;;;;;5.50;2.63;;;3.10;1.00;;;;;;4915031;29;20175;-53
2022/03/04 18:50:08;;;;;;;5.37;3.17;;;3.10;1.00;;;;;;4912527;29;20446;-52
2022/03/04 18:52:34;;;;;;;5.80;2.67;;;3.00;1.00;;;;;;4933979;29;20214;-53
2022/03/04 18:54:59;;;;;;;4.13;2.40;;;3.00;1.00;;;;;;4920865;29;20560;-52
2022/03/04 18:57:27;;;;;;;5.27;2.97;;;3.00;1.00;;;;;;4934319;29;20233;-56
2022/03/04 18:59:52;;;;;;;4.53;2.43;;;3.00;1.00;;;;;;4916931;29;20182;-52
2022/03/04 19:02:18;;;;;;;6.13;2.50;;;3.00;1.00;;;;;;4915208;29;20417;-52
2022/03/04 19:04:43;;;;;;;9.77;3.23;;;3.10;1.00;;;;;;4896534;29;20206;-52
2022/03/04 19:07:09;;;;;;;23.63;7.90;;;3.00;1.00;;;;;;4914754;29;20187;-52
2022/03/04 19:09:35;;;;;;;15.30;5.13;;;3.00;1.00;;;;;;4913847;29;20209;-52
2022/03/04 19:12:00;;;;;;;5.67;2.83;;;3.00;1.00;;;;;;4914448;29;20684;-53
2022/03/04 19:14:26;;;;;;;4.10;2.30;;;3.00;1.00;;;;;;4911528;29;20213;-52
2022/03/04 19:16:51;;;;;;;10.47;2.80;;;2.90;1.00;;;;;;4914418;29;20242;-51
2022/03/04 19:19:17;;;;;;;4.77;2.20;;;2.90;1.00;;;;;;4916641;29;20567;-52
2022/03/04 19:21:44;;;;;;;6.93;2.47;;;2.90;1.00;;;;;;4921509;29;20198;-52
2022/03/04 19:24:10;;;;;;;4.27;2.30;;;2.80;1.00;;;;;;4915377;29;20198;-52
2022/03/04 19:26:36;;;;;;;6.63;3.10;;;2.80;1.00;;;;;;4914513;29;20761;-52
2022/03/04 19:29:02;;;;;;;5.40;2.60;;;2.80;1.00;;;;;;4911839;29;20198;-52
2022/03/04 19:31:29;;;;;;;6.67;3.20;;;2.80;1.00;;;;;;4914403;29;20293;-52
2022/03/04 19:33:56;;;;;;;5.20;2.50;;;2.80;1.00;;;;;;4918589;29;20454;-52
2022/03/04 19:36:23;;;;;;;4.83;2.10;;;2.70;1.00;;;;;;4915115;29;20951;-52
2022/03/04 19:38:49;;;;;;;5.60;2.53;;;2.80;1.00;;;;;;4912687;29;20815;-52
2022/03/04 19:41:14;;;;;;;6.40;2.40;;;2.80;1.00;;;;;;4914537;29;20437;-53
2022/03/04 19:43:40;;;;;;;5.03;2.50;;;2.80;1.00;;;;;;4918517;29;20805;-52
2022/03/04 19:46:06;;;;;;;4.77;2.60;;;2.70;1.00;;;;;;4914767;29;20285;-52
2022/03/04 19:48:32;;;;;;;4.47;2.90;;;2.70;1.00;;;;;;4916009;29;20283;-52
2022/03/04 19:50:58;;;;;;;7.70;2.80;;;2.70;1.00;;;;;;4933216;29;20182;-56
2022/03/04 19:53:24;;;;;;;8.80;2.77;;;2.70;1.00;;;;;;4916964;29;20625;-52
2022/03/04 19:55:49;;;;;;;3.70;2.40;;;2.70;1.00;;;;;;4913840;29;20470;-52
2022/03/04 19:58:15;;;;;;;6.23;2.80;;;2.60;1.00;;;;;;4900885;29;20250;-52
2022/03/04 20:00:41;;;;;;;7.73;3.37;;;2.60;1.00;;;;;;4914141;29;20720;-52
2022/03/04 20:03:07;;;;;;;7.40;4.47;;;2.60;1.00;;;;;;4898667;29;20193;-53
2022/03/04 20:05:32;;;;;;;6.70;3.27;;;2.70;1.00;;;;;;4932787;29;20306;-52
2022/03/04 20:07:59;;;;;;;10.10;3.07;;;2.60;1.00;;;;;;4918724;29;20986;-52
2022/03/04 20:10:25;;;;;;;8.03;4.17;;;2.70;1.00;;;;;;4913903;29;20813;-52
2022/03/04 20:12:51;;;;;;;6.93;3.40;;;2.60;1.00;;;;;;4912366;29;20451;-56
2022/03/04 20:15:17;;;;;;;8.53;3.83;;;2.60;1.00;;;;;;4913585;29;20745;-52
2022/03/04 20:17:43;;;;;;;5.77;3.50;;;2.50;1.00;;;;;;4920575;29;20536;-52
2022/03/04 20:20:09;;;;;;;11.00;4.40;;;2.50;1.00;;;;;;4918342;29;20553;-52
2022/03/04 20:22:35;;;;;;;7.90;4.03;;;2.60;1.00;;;;;;4885329;29;20200;-52
2022/03/04 20:25:01;;;;;;;6.50;4.40;;;2.60;1.00;;;;;;4908859;29;20466;-52
2022/03/04 20:27:26;;;;;;;9.83;4.17;;;2.60;1.00;;;;;;4912506;29;20207;-52
2022/03/04 20:29:52;;;;;;;9.57;4.00;;;2.60;1.00;;;;;;4917706;29;20233;-52
2022/03/04 20:32:18;;;;;;;11.10;3.87;;;2.60;1.00;;;;;;4922168;29;20201;-52
2022/03/04 20:34:44;;;;;;;6.73;4.03;;;2.50;1.00;;;;;;4926639;29;20222;-52
2022/03/04 20:37:10;;;;;;;12.00;3.83;;;2.50;1.00;;;;;;4924471;29;20513;-52
2022/03/04 20:39:35;;;;;;;10.33;4.13;;;2.40;1.00;;;;;;4936697;29;20170;-52
2022/03/04 20:42:02;;;;;;;9.80;4.10;;;2.40;1.00;;;;;;4926492;29;20217;-53
2022/03/04 20:44:27;;;;;;;9.97;3.77;;;2.40;1.00;;;;;;4923886;29;20203;-52
2022/03/04 20:46:53;;;;;;;16.27;4.77;;;2.30;1.00;;;;;;4924656;29;20855;-52
2022/03/04 20:49:18;;;;;;;8.03;4.53;;;2.30;1.00;;;;;;4925398;29;20195;-53
2022/03/04 20:51:44;;;;;;;11.27;5.30;;;2.20;1.00;;;;;;4922785;29;20213;-52
2022/03/04 20:54:09;;;;;;;9.00;4.80;;;2.20;1.00;;;;;;4926496;29;20607;-53
2022/03/04 20:56:37;;;;;;;11.23;4.67;;;2.20;1.00;;;;;;4924563;29;20571;-52
2022/03/04 20:59:03;;;;;;;5.43;4.40;;;2.20;1.00;;;;;;4936253;29;20185;-51
2022/03/04 21:01:28;;;;;;;7.10;3.80;;;2.10;1.00;;;;;;4912990;29;20463;-51
2022/03/04 21:03:54;;;;;;;7.33;4.33;;;2.20;1.00;;;;;;4917074;29;20411;-51
2022/03/04 21:06:20;;;;;;;10.40;5.93;;;2.20;1.00;;;;;;4925306;29;20205;-51
2022/03/04 21:08:46;;;;;;;6.83;4.47;;;2.20;1.00;;;;;;4935760;29;20194;-51
2022/03/04 21:11:11;;;;;;;10.30;4.63;;;2.30;1.00;;;;;;4922169;29;20466;-51
2022/03/04 21:13:37;;;;;;;13.83;5.60;;;2.30;1.00;;;;;;4920837;29;20191;-51
2022/03/04 21:16:03;;;;;;;6.63;4.30;;;2.20;1.00;;;;;;4923475;29;20510;-51
2022/03/04 21:18:28;;;;;;;7.03;4.57;;;2.20;1.00;;;;;;4921042;29;20263;-51
2022/03/04 21:20:55;;;;;;;9.07;4.80;;;2.10;1.00;;;;;;4923777;29;20457;-51
2022/03/04 21:23:21;;;;;;;10.97;5.10;;;2.10;1.00;;;;;;4930100;29;20187;-51
2022/03/04 21:25:47;;;;;;;19.53;6.77;;;2.00;1.00;;;;;;4926532;29;20928;-51
2022/03/04 21:28:13;;;;;;;7.30;4.50;;;2.10;1.00;;;;;;4921727;29;20194;-50
2022/03/04 21:30:38;;;;;;;14.73;7.20;;;2.10;1.00;;;;;;4923387;29;20248;-52
2022/03/04 21:33:04;;;;;;;18.70;10.80;;;2.10;1.00;;;;;;4933720;29;20546;-52
2022/03/04 21:35:30;;;;;;;10.63;5.40;;;2.00;1.00;;;;;;4914891;29;20649;-52
2022/03/04 21:37:57;;;;;;;11.07;5.70;;;2.00;1.00;;;;;;4914931;29;20437;-51
2022/03/04 21:40:23;;;;;;;12.17;6.10;;;1.90;1.00;;;;;;4929833;29;20683;-52
2022/03/04 21:42:49;;;;;;;18.07;6.37;;;2.00;1.00;;;;;;4932442;29;20789;-53
2022/03/04 21:45:15;;;;;;;7.93;4.90;;;2.00;1.00;;;;;;4914191;29;20447;-59
2022/03/04 21:47:41;;;;;;;8.73;4.63;;;1.90;1.00;;;;;;4913466;29;20474;-52
2022/03/04 21:50:07;;;;;;;7.70;4.30;;;1.90;1.00;;;;;;4919281;29;20282;-52
2022/03/04 21:52:33;;;;;;;14.40;7.40;;;1.90;1.00;;;;;;4913561;29;20656;-52
2022/03/04 21:54:58;;;;;;;6.93;4.03;;;2.00;1.00;;;;;;4929580;29;20438;-52
2022/03/04 21:57:24;;;;;;;5.80;3.93;;;1.90;1.00;;;;;;4912853;29;20498;-54
2022/03/04 21:59:50;;;;;;;6.93;3.47;;;1.90;1.00;;;;;;4916551;29;20733;-52
2022/03/04 22:02:15;;;;;;;9.07;3.77;;;2.00;1.00;;;;;;4913269;29;20278;-52
2022/03/04 22:04:41;;;;;;;13.80;3.70;;;2.00;1.00;;;;;;4911393;29;20203;-52
2022/03/04 22:07:06;;;;;;;8.73;3.77;;;2.00;1.00;;;;;;4913603;29;20198;-52
2022/03/04 22:09:32;;;;;;;11.00;4.50;;;1.90;1.00;;;;;;4896876;29;20650;-52
2022/03/04 22:11:58;;;;;;;7.63;3.30;;;1.90;1.00;;;;;;4910849;29;20216;-52
2022/03/04 22:14:23;;;;;;;5.53;3.50;;;1.90;1.00;;;;;;4927158;29;20246;-56
2022/03/04 22:16:49;;;;;;;8.87;4.27;;;1.90;1.00;;;;;;4916318;29;20918;-52
2022/03/04 22:19:15;;;;;;;6.23;3.33;;;1.90;1.00;;;;;;4931034;29;20198;-56
2022/03/04 22:21:41;;;;;;;6.23;3.40;;;1.90;1.00;;;;;;4928546;29;20195;-52
2022/03/04 22:24:06;;;;;;;8.20;3.60;;;1.80;1.00;;;;;;4928735;29;20465;-51
2022/03/04 22:26:32;;;;;;;9.60;3.60;;;1.70;1.00;;;;;;4928634;29;20607;-52
2022/03/04 22:28:57;;;;;;;13.43;3.83;;;1.70;1.00;;;;;;4915797;29;20563;-52
2022/03/04 22:31:23;;;;;;;8.70;3.90;;;1.60;1.00;;;;;;4911990;29;20247;-52